69.6°F
Current conditions from King Hill
Updated every 5 minutes
 
  Wednesday July 23, 2014

Station Historical Data
Daily Summary for March 21, 2012 Units:  Both    English   Metric
« Previous Day
Next Day »
Daily Weekly Monthly Yearly Custom
  High: Low: Average:
Temperature: 80.3 °F /  26.8 °C 55.3 °F /  12.9 °C 66.6 °F /  19.2 °C
Dew Point: 55.6 °F /  13.1 °C 44.4 °F /  6.9 °C 50.3 °F /  10.2 °C
Humidity: 79% 35% 58%
Wind Speed: 9.0mph /  14.5km/h - 3.4mph /  5.5km/h
Wind Gust: 15.0mph /  24.1km/h - -
Wind- - SSW
Pressure: 30.27 in /  1024.9 hPa 30.12 in /  1019.9 hPa -
Precipitation: 0.00 in /  0 mm    
Historical Graphs
 
 
Tabular Data for March 21, 2012
Time Temperature Dew Point Pressure Wind Wind Speed Wind Gust Humidity Daily Rainfall
00:00 58.4 °F /  14.7 °C 51.9 °F /  11.1 °C 30.20in /  1022.6hPa Calm     79% 0.00in /  0mm
00:05 58.3 °F /  14.6 °C 51.5 °F /  10.8 °C 30.20in /  1022.6hPa Calm     78% 0.00in /  0mm
00:10 57.9 °F /  14.4 °C 51.4 °F /  10.8 °C 30.20in /  1022.6hPa Calm     79% 0.00in /  0mm
00:15 57.7 °F /  14.3 °C 50.9 °F /  10.5 °C 30.20in /  1022.6hPa Calm   1.0mph /  1.6km/h 78% 0.00in /  0mm
00:20 57.7 °F /  14.3 °C 50.5 °F /  10.3 °C 30.20in /  1022.6hPa NW 2.0mph /  3.2km/h 3.0mph /  4.8km/h 77% 0.00in /  0mm
00:25 57.7 °F /  14.3 °C 50.5 °F /  10.3 °C 30.20in /  1022.6hPa Calm   4.0mph /  6.4km/h 77% 0.00in /  0mm
00:30 57.8 °F /  14.3 °C 50.6 °F /  10.3 °C 30.20in /  1022.6hPa NW 1.0mph /  1.6km/h 4.0mph /  6.4km/h 77% 0.00in /  0mm
00:40 58.6 °F /  14.8 °C 51.4 °F /  10.8 °C 30.20in /  1022.6hPa SSW 3.0mph /  4.8km/h 5.0mph /  8km/h 77% 0.00in /  0mm
00:45 59.0 °F /  15 °C 51.5 °F /  10.8 °C 30.20in /  1022.6hPa Calm   5.0mph /  8km/h 76% 0.00in /  0mm
00:50 59.0 °F /  15 °C 51.1 °F /  10.6 °C 30.20in /  1022.6hPa SSW 3.0mph /  4.8km/h 5.0mph /  8km/h 75% 0.00in /  0mm
00:55 59.0 °F /  15 °C 51.1 °F /  10.6 °C 30.20in /  1022.6hPa Calm   5.0mph /  8km/h 75% 0.00in /  0mm
01:00 58.9 °F /  14.9 °C 51.0 °F /  10.6 °C 30.20in /  1022.6hPa SSW 1.0mph /  1.6km/h 5.0mph /  8km/h 75% 0.00in /  0mm
01:05 58.4 °F /  14.7 °C 50.5 °F /  10.3 °C 30.20in /  1022.6hPa SSW 2.0mph /  3.2km/h 5.0mph /  8km/h 75% 0.00in /  0mm
01:10 58.2 °F /  14.6 °C 50.7 °F /  10.4 °C 30.20in /  1022.6hPa Calm   5.0mph /  8km/h 76% 0.00in /  0mm
01:15 58.2 °F /  14.6 °C 51.0 °F /  10.6 °C 30.20in /  1022.6hPa SSW 3.0mph /  4.8km/h 5.0mph /  8km/h 77% 0.00in /  0mm
01:20 58.4 °F /  14.7 °C 51.2 °F /  10.7 °C 30.20in /  1022.6hPa SSW 2.0mph /  3.2km/h 6.0mph /  9.7km/h 77% 0.00in /  0mm
01:25 59.0 °F /  15 °C 51.8 °F /  11 °C 30.20in /  1022.6hPa SSW 4.0mph /  6.4km/h 7.0mph /  11.3km/h 77% 0.00in /  0mm
01:30 59.8 °F /  15.4 °C 52.2 °F /  11.2 °C 30.20in /  1022.6hPa SSW 4.0mph /  6.4km/h 7.0mph /  11.3km/h 76% 0.00in /  0mm
01:35 60.4 °F /  15.8 °C 52.1 °F /  11.2 °C 30.20in /  1022.6hPa SSW 5.0mph /  8km/h 9.0mph /  14.5km/h 74% 0.00in /  0mm
01:40 60.9 °F /  16.1 °C 52.2 °F /  11.2 °C 30.20in /  1022.6hPa SSW 5.0mph /  8km/h 11.0mph /  17.7km/h 73% 0.00in /  0mm
01:45 60.9 °F /  16.1 °C 51.8 °F /  11 °C 30.20in /  1022.6hPa SSW 4.0mph /  6.4km/h 11.0mph /  17.7km/h 72% 0.00in /  0mm
01:50 60.7 °F /  15.9 °C 51.6 °F /  10.9 °C 30.20in /  1022.6hPa SSW 5.0mph /  8km/h 8.0mph /  12.9km/h 72% 0.00in /  0mm
01:55 60.5 °F /  15.8 °C 51.4 °F /  10.8 °C 30.21in /  1022.9hPa SSW 4.0mph /  6.4km/h 8.0mph /  12.9km/h 72% 0.00in /  0mm
02:00 60.3 °F /  15.7 °C 51.2 °F /  10.7 °C 30.21in /  1022.9hPa SSW 5.0mph /  8km/h 8.0mph /  12.9km/h 72% 0.00in /  0mm
02:05 60.3 °F /  15.7 °C 51.2 °F /  10.7 °C 30.21in /  1022.9hPa SSW 5.0mph /  8km/h 8.0mph /  12.9km/h 72% 0.00in /  0mm
02:10 60.0 °F /  15.6 °C 51.0 °F /  10.6 °C 30.21in /  1022.9hPa SSW 4.0mph /  6.4km/h 8.0mph /  12.9km/h 72% 0.00in /  0mm
02:15 59.6 °F /  15.3 °C 50.6 °F /  10.3 °C 30.21in /  1022.9hPa SSW 4.0mph /  6.4km/h 7.0mph /  11.3km/h 72% 0.00in /  0mm
02:20 59.0 °F /  15 °C 50.0 °F /  10 °C 30.20in /  1022.6hPa SSW 3.0mph /  4.8km/h 6.0mph /  9.7km/h 72% 0.00in /  0mm
02:25 59.0 °F /  15 °C 50.4 °F /  10.2 °C 30.21in /  1022.9hPa SSW 4.0mph /  6.4km/h 6.0mph /  9.7km/h 73% 0.00in /  0mm
02:30 58.3 °F /  14.6 °C 50.1 °F /  10.1 °C 30.21in /  1022.9hPa SSW 3.0mph /  4.8km/h 6.0mph /  9.7km/h 74% 0.00in /  0mm
02:35 57.8 °F /  14.3 °C 49.6 °F /  9.8 °C 30.21in /  1022.9hPa SSW 3.0mph /  4.8km/h 6.0mph /  9.7km/h 74% 0.00in /  0mm
02:40 58.0 °F /  14.4 °C 49.8 °F /  9.9 °C 30.21in /  1022.9hPa SSW 4.0mph /  6.4km/h 6.0mph /  9.7km/h 74% 0.00in /  0mm
02:45 58.3 °F /  14.6 °C 49.7 °F /  9.8 °C 30.21in /  1022.9hPa SSW 2.0mph /  3.2km/h 6.0mph /  9.7km/h 73% 0.00in /  0mm
02:50 58.4 °F /  14.7 °C 49.4 °F /  9.7 °C 30.21in /  1022.9hPa SSW 3.0mph /  4.8km/h 6.0mph /  9.7km/h 72% 0.00in /  0mm
02:55 58.5 °F /  14.7 °C 49.5 °F /  9.7 °C 30.21in /  1022.9hPa SSW 3.0mph /  4.8km/h 5.0mph /  8km/h 72% 0.00in /  0mm
03:00 58.5 °F /  14.7 °C 49.1 °F /  9.5 °C 30.21in /  1022.9hPa SSW 2.0mph /  3.2km/h 5.0mph /  8km/h 71% 0.00in /  0mm
03:05 58.3 °F /  14.6 °C 48.9 °F /  9.4 °C 30.21in /  1022.9hPa SSW 2.0mph /  3.2km/h 5.0mph /  8km/h 71% 0.00in /  0mm
03:10 58.2 °F /  14.6 °C 48.9 °F /  9.4 °C 30.21in /  1022.9hPa SSW 2.0mph /  3.2km/h 5.0mph /  8km/h 71% 0.00in /  0mm
03:15 58.3 °F /  14.6 °C 48.9 °F /  9.4 °C 30.21in /  1022.9hPa SSW 2.0mph /  3.2km/h 5.0mph /  8km/h 71% 0.00in /  0mm
03:20 58.3 °F /  14.6 °C 48.9 °F /  9.4 °C 30.21in /  1022.9hPa SSW 3.0mph /  4.8km/h 5.0mph /  8km/h 71% 0.00in /  0mm
03:25 58.5 °F /  14.7 °C 48.8 °F /  9.3 °C 30.21in /  1022.9hPa SSW 2.0mph /  3.2km/h 5.0mph /  8km/h 70% 0.00in /  0mm
03:30 58.7 °F /  14.8 °C 49.0 °F /  9.4 °C 30.21in /  1022.9hPa SSW 2.0mph /  3.2km/h 5.0mph /  8km/h 70% 0.00in /  0mm
03:35 58.9 °F /  14.9 °C 49.1 °F /  9.5 °C 30.21in /  1022.9hPa SSW 4.0mph /  6.4km/h 7.0mph /  11.3km/h 70% 0.00in /  0mm
03:40 58.8 °F /  14.9 °C 48.7 °F /  9.3 °C 30.21in /  1022.9hPa SSW 3.0mph /  4.8km/h 7.0mph /  11.3km/h 69% 0.00in /  0mm
03:50 58.6 °F /  14.8 °C 48.9 °F /  9.4 °C 30.20in /  1022.6hPa SSW 4.0mph /  6.4km/h 7.0mph /  11.3km/h 70% 0.00in /  0mm
03:55 59.0 °F /  15 °C 48.9 °F /  9.4 °C 30.20in /  1022.6hPa SSW 3.0mph /  4.8km/h 7.0mph /  11.3km/h 69% 0.00in /  0mm
04:00 58.7 °F /  14.8 °C 48.6 °F /  9.2 °C 30.20in /  1022.6hPa SSW 4.0mph /  6.4km/h 7.0mph /  11.3km/h 69% 0.00in /  0mm
04:05 58.8 °F /  14.9 °C 48.7 °F /  9.3 °C 30.20in /  1022.6hPa SSW 4.0mph /  6.4km/h 7.0mph /  11.3km/h 69% 0.00in /  0mm
04:10 58.6 °F /  14.8 °C 48.5 °F /  9.2 °C 30.20in /  1022.6hPa SSW 4.0mph /  6.4km/h 8.0mph /  12.9km/h 69% 0.00in /  0mm
04:15 58.4 °F /  14.7 °C 48.7 °F /  9.3 °C 30.21in /  1022.9hPa SSW 4.0mph /  6.4km/h 8.0mph /  12.9km/h 70% 0.00in /  0mm
04:20 58.1 °F /  14.5 °C 48.4 °F /  9.1 °C 30.20in /  1022.6hPa SSW 3.0mph /  4.8km/h 7.0mph /  11.3km/h 70% 0.00in /  0mm
04:25 57.9 °F /  14.4 °C 48.2 °F /  9 °C 30.21in /  1022.9hPa SSW 5.0mph /  8km/h 8.0mph /  12.9km/h 70% 0.00in /  0mm
04:30 58.0 °F /  14.4 °C 48.3 °F /  9.1 °C 30.21in /  1022.9hPa SSW 5.0mph /  8km/h 8.0mph /  12.9km/h 70% 0.00in /  0mm
04:35 58.3 °F /  14.6 °C 48.6 °F /  9.2 °C 30.21in /  1022.9hPa SSW 5.0mph /  8km/h 7.0mph /  11.3km/h 70% 0.00in /  0mm
04:40 58.4 °F /  14.7 °C 48.7 °F /  9.3 °C 30.21in /  1022.9hPa SSW 4.0mph /  6.4km/h 7.0mph /  11.3km/h 70% 0.00in /  0mm
04:50 58.7 °F /  14.8 °C 49.0 °F /  9.4 °C 30.21in /  1022.9hPa SSW 5.0mph /  8km/h 8.0mph /  12.9km/h 70% 0.00in /  0mm
04:55 58.7 °F /  14.8 °C 49.0 °F /  9.4 °C 30.21in /  1022.9hPa SSW 5.0mph /  8km/h 8.0mph /  12.9km/h 70% 0.00in /  0mm
05:00 58.5 °F /  14.7 °C 48.8 °F /  9.3 °C 30.21in /  1022.9hPa SSW 5.0mph /  8km/h 8.0mph /  12.9km/h 70% 0.00in /  0mm
05:05 58.4 °F /  14.7 °C 48.7 °F /  9.3 °C 30.21in /  1022.9hPa SSW 5.0mph /  8km/h 8.0mph /  12.9km/h 70% 0.00in /  0mm
05:10 58.1 °F /  14.5 °C 48.4 °F /  9.1 °C 30.21in /  1022.9hPa SSW 5.0mph /  8km/h 7.0mph /  11.3km/h 70% 0.00in /  0mm
05:15 58.0 °F /  14.4 °C 48.7 °F /  9.3 °C 30.21in /  1022.9hPa SSW 4.0mph /  6.4km/h 7.0mph /  11.3km/h 71% 0.00in /  0mm
05:20 58.0 °F /  14.4 °C 48.7 °F /  9.3 °C 30.21in /  1022.9hPa SSW 5.0mph /  8km/h 7.0mph /  11.3km/h 71% 0.00in /  0mm
05:25 58.0 °F /  14.4 °C 48.7 °F /  9.3 °C 30.21in /  1022.9hPa SSW 5.0mph /  8km/h 7.0mph /  11.3km/h 71% 0.00in /  0mm
05:30 58.1 °F /  14.5 °C 48.8 °F /  9.3 °C 30.21in /  1022.9hPa SSW 5.0mph /  8km/h 7.0mph /  11.3km/h 71% 0.00in /  0mm
05:35 58.1 °F /  14.5 °C 48.8 °F /  9.3 °C 30.22in /  1023.2hPa SSW 4.0mph /  6.4km/h 7.0mph /  11.3km/h 71% 0.00in /  0mm
05:40 58.0 °F /  14.4 °C 48.7 °F /  9.3 °C 30.22in /  1023.2hPa SSW 5.0mph /  8km/h 7.0mph /  11.3km/h 71% 0.00in /  0mm
05:45 57.9 °F /  14.4 °C 48.6 °F /  9.2 °C 30.22in /  1023.2hPa SSW 5.0mph /  8km/h 7.0mph /  11.3km/h 71% 0.00in /  0mm
05:50 57.9 °F /  14.4 °C 48.6 °F /  9.2 °C 30.22in /  1023.2hPa SSW 3.0mph /  4.8km/h 7.0mph /  11.3km/h 71% 0.00in /  0mm
05:55 57.8 °F /  14.3 °C 48.5 °F /  9.2 °C 30.23in /  1023.6hPa SSW 2.0mph /  3.2km/h 6.0mph /  9.7km/h 71% 0.00in /  0mm
06:00 57.5 °F /  14.2 °C 48.2 °F /  9 °C 30.23in /  1023.6hPa SSW 2.0mph /  3.2km/h 6.0mph /  9.7km/h 71% 0.00in /  0mm
06:05 57.3 °F /  14.1 °C 48.4 °F /  9.1 °C 30.23in /  1023.6hPa SSW 3.0mph /  4.8km/h 5.0mph /  8km/h 72% 0.00in /  0mm
06:10 57.2 °F /  14 °C 48.3 °F /  9.1 °C 30.23in /  1023.6hPa SSW 3.0mph /  4.8km/h 7.0mph /  11.3km/h 72% 0.00in /  0mm
06:15 57.6 °F /  14.2 °C 48.6 °F /  9.2 °C 30.23in /  1023.6hPa SSW 5.0mph /  8km/h 7.0mph /  11.3km/h 72% 0.00in /  0mm
06:20 57.9 °F /  14.4 °C 48.9 °F /  9.4 °C 30.23in /  1023.6hPa SSW 6.0mph /  9.7km/h 9.0mph /  14.5km/h 72% 0.00in /  0mm
06:25 58.0 °F /  14.4 °C 49.0 °F /  9.4 °C 30.23in /  1023.6hPa SSW 4.0mph /  6.4km/h 9.0mph /  14.5km/h 72% 0.00in /  0mm
06:30 57.8 °F /  14.3 °C 48.8 °F /  9.3 °C 30.24in /  1023.9hPa SSW 5.0mph /  8km/h 9.0mph /  14.5km/h 72% 0.00in /  0mm
06:40 57.5 °F /  14.2 °C 48.6 °F /  9.2 °C 30.24in /  1023.9hPa SSW 2.0mph /  3.2km/h 9.0mph /  14.5km/h 72% 0.00in /  0mm
06:45 57.0 °F /  13.9 °C 48.4 °F /  9.1 °C 30.24in /  1023.9hPa SSW 4.0mph /  6.4km/h 9.0mph /  14.5km/h 73% 0.00in /  0mm
06:50 56.6 °F /  13.7 °C 48.1 °F /  8.9 °C 30.24in /  1023.9hPa SSW 3.0mph /  4.8km/h 7.0mph /  11.3km/h 73% 0.00in /  0mm
06:55 56.4 °F /  13.6 °C 48.2 °F /  9 °C 30.24in /  1023.9hPa SSW 4.0mph /  6.4km/h 7.0mph /  11.3km/h 74% 0.00in /  0mm
07:00 56.2 °F /  13.4 °C 48.0 °F /  8.9 °C 30.24in /  1023.9hPa SSW 5.0mph /  8km/h 7.0mph /  11.3km/h 74% 0.00in /  0mm
07:05 55.9 °F /  13.3 °C 47.7 °F /  8.7 °C 30.25in /  1024.3hPa SSW 3.0mph /  4.8km/h 7.0mph /  11.3km/h 74% 0.00in /  0mm
07:09 55.5 °F /  13.1 °C 47.7 °F /  8.7 °C 30.25in /  1024.3hPa SSW 1.0mph /  1.6km/h 6.0mph /  9.7km/h 75% 0.00in /  0mm
07:15 55.3 °F /  12.9 °C 47.9 °F /  8.8 °C 30.25in /  1024.3hPa SSW 4.0mph /  6.4km/h 7.0mph /  11.3km/h 76% 0.00in /  0mm
07:20 55.5 °F /  13.1 °C 48.4 °F /  9.1 °C 30.25in /  1024.3hPa SSW 3.0mph /  4.8km/h 7.0mph /  11.3km/h 77% 0.00in /  0mm
07:30 56.1 °F /  13.4 °C 48.6 °F /  9.2 °C 30.25in /  1024.3hPa SSW 2.0mph /  3.2km/h 7.0mph /  11.3km/h 76% 0.00in /  0mm
07:35 56.5 °F /  13.6 °C 49.0 °F /  9.4 °C 30.25in /  1024.3hPa SSW 2.0mph /  3.2km/h 7.0mph /  11.3km/h 76% 0.00in /  0mm
07:40 56.9 °F /  13.8 °C 49.4 °F /  9.7 °C 30.26in /  1024.6hPa SSW 1.0mph /  1.6km/h 7.0mph /  11.3km/h 76% 0.00in /  0mm
07:45 57.1 °F /  13.9 °C 49.6 °F /  9.8 °C 30.26in /  1024.6hPa SSW 2.0mph /  3.2km/h 7.0mph /  11.3km/h 76% 0.00in /  0mm
07:50 57.3 °F /  14.1 °C 49.8 °F /  9.9 °C 30.26in /  1024.6hPa SSW 3.0mph /  4.8km/h 8.0mph /  12.9km/h 76% 0.00in /  0mm
07:55 57.7 °F /  14.3 °C 49.8 °F /  9.9 °C 30.26in /  1024.6hPa SSW 3.0mph /  4.8km/h 9.0mph /  14.5km/h 75% 0.00in /  0mm
08:00 58.1 °F /  14.5 °C 50.2 °F /  10.1 °C 30.26in /  1024.6hPa SSW 5.0mph /  8km/h 9.0mph /  14.5km/h 75% 0.00in /  0mm
08:09 58.6 °F /  14.8 °C 50.7 °F /  10.4 °C 30.26in /  1024.6hPa SSW 4.0mph /  6.4km/h 10.0mph /  16.1km/h 75% 0.00in /  0mm
08:15 58.7 °F /  14.8 °C 50.4 °F /  10.2 °C 30.26in /  1024.6hPa SSW 4.0mph /  6.4km/h 10.0mph /  16.1km/h 74% 0.00in /  0mm
08:20 59.0 °F /  15 °C 50.7 °F /  10.4 °C 30.26in /  1024.6hPa SSW 5.0mph /  8km/h 10.0mph /  16.1km/h 74% 0.00in /  0mm
08:25 59.0 °F /  15 °C 50.7 °F /  10.4 °C 30.26in /  1024.6hPa SSW 5.0mph /  8km/h 10.0mph /  16.1km/h 74% 0.00in /  0mm
08:30 59.2 °F /  15.1 °C 50.9 °F /  10.5 °C 30.26in /  1024.6hPa SSW 5.0mph /  8km/h 11.0mph /  17.7km/h 74% 0.00in /  0mm
08:40 60.2 °F /  15.7 °C 51.1 °F /  10.6 °C 30.26in /  1024.6hPa SSW 6.0mph /  9.7km/h 10.0mph /  16.1km/h 72% 0.00in /  0mm
08:45 60.6 °F /  15.9 °C 51.5 °F /  10.8 °C 30.26in /  1024.6hPa SSW 3.0mph /  4.8km/h 13.0mph /  20.9km/h 72% 0.00in /  0mm
08:50 61.1 °F /  16.2 °C 51.6 °F /  10.9 °C 30.26in /  1024.6hPa SSW 4.0mph /  6.4km/h 13.0mph /  20.9km/h 71% 0.00in /  0mm
08:55 61.5 °F /  16.4 °C 51.6 °F /  10.9 °C 30.26in /  1024.6hPa SSW 6.0mph /  9.7km/h 10.0mph /  16.1km/h 70% 0.00in /  0mm
09:00 61.8 °F /  16.6 °C 52.3 °F /  11.3 °C 30.26in /  1024.6hPa SSW 4.0mph /  6.4km/h 11.0mph /  17.7km/h 71% 0.00in /  0mm
09:05 62.4 °F /  16.9 °C 52.5 °F /  11.4 °C 30.26in /  1024.6hPa SSW 8.0mph /  12.9km/h 15.0mph /  24.1km/h 70% 0.00in /  0mm
09:09 62.4 °F /  16.9 °C 52.1 °F /  11.2 °C 30.26in /  1024.6hPa SSW 5.0mph /  8km/h 15.0mph /  24.1km/h 69% 0.00in /  0mm
09:15 62.8 °F /  17.1 °C 52.5 °F /  11.4 °C 30.26in /  1024.6hPa SSW 5.0mph /  8km/h 12.0mph /  19.3km/h 69% 0.00in /  0mm
09:20 63.5 °F /  17.5 °C 52.8 °F /  11.6 °C 30.26in /  1024.6hPa SSW 6.0mph /  9.7km/h 13.0mph /  20.9km/h 68% 0.00in /  0mm
09:25 63.8 °F /  17.7 °C 53.0 °F /  11.7 °C 30.26in /  1024.6hPa SW 5.0mph /  8km/h 13.0mph /  20.9km/h 68% 0.00in /  0mm
09:30 64.0 °F /  17.8 °C 53.2 °F /  11.8 °C 30.26in /  1024.6hPa SSW 7.0mph /  11.3km/h 12.0mph /  19.3km/h 68% 0.00in /  0mm
09:35 64.2 °F /  17.9 °C 53.0 °F /  11.7 °C 30.26in /  1024.6hPa SW 7.0mph /  11.3km/h 12.0mph /  19.3km/h 67% 0.00in /  0mm
09:40 64.0 °F /  17.8 °C 52.8 °F /  11.6 °C 30.26in /  1024.6hPa SSW 7.0mph /  11.3km/h 12.0mph /  19.3km/h 67% 0.00in /  0mm
09:45 64.1 °F /  17.8 °C 52.9 °F /  11.6 °C 30.26in /  1024.6hPa SW 9.0mph /  14.5km/h 14.0mph /  22.5km/h 67% 0.00in /  0mm
09:55 64.5 °F /  18.1 °C 53.3 °F /  11.8 °C 30.26in /  1024.6hPa SSW 4.0mph /  6.4km/h 12.0mph /  19.3km/h 67% 0.00in /  0mm
10:00 64.8 °F /  18.2 °C 53.2 °F /  11.8 °C 30.27in /  1024.9hPa SW 7.0mph /  11.3km/h 12.0mph /  19.3km/h 66% 0.00in /  0mm
10:04 65.2 °F /  18.4 °C 53.6 °F /  12 °C 30.27in /  1024.9hPa SW 5.0mph /  8km/h 11.0mph /  17.7km/h 66% 0.00in /  0mm
10:10 65.6 °F /  18.7 °C 53.5 °F /  11.9 °C 30.27in /  1024.9hPa SSW 5.0mph /  8km/h 12.0mph /  19.3km/h 65% 0.00in /  0mm
10:14 65.8 °F /  18.8 °C 53.7 °F /  12.1 °C 30.27in /  1024.9hPa SSW 4.0mph /  6.4km/h 12.0mph /  19.3km/h 65% 0.00in /  0mm
10:20 66.6 °F /  19.2 °C 54.1 °F /  12.3 °C 30.27in /  1024.9hPa SSW 2.0mph /  3.2km/h 10.0mph /  16.1km/h 64% 0.00in /  0mm
10:25 67.6 °F /  19.8 °C 54.1 °F /  12.3 °C 30.26in /  1024.6hPa SW 2.0mph /  3.2km/h 8.0mph /  12.9km/h 62% 0.00in /  0mm
10:29 67.9 °F /  19.9 °C 53.5 °F /  11.9 °C 30.26in /  1024.6hPa SSW 4.0mph /  6.4km/h 8.0mph /  12.9km/h 60% 0.00in /  0mm
10:35 68.6 °F /  20.3 °C 54.6 °F /  12.6 °C 30.26in /  1024.6hPa South 1.0mph /  1.6km/h 8.0mph /  12.9km/h 61% 0.00in /  0mm
10:40 69.5 °F /  20.8 °C 54.6 °F /  12.6 °C 30.26in /  1024.6hPa South 3.0mph /  4.8km/h 7.0mph /  11.3km/h 59% 0.00in /  0mm
10:50 70.4 °F /  21.3 °C 54.9 °F /  12.7 °C 30.26in /  1024.6hPa SW 3.0mph /  4.8km/h 5.0mph /  8km/h 58% 0.00in /  0mm
11:00 70.8 °F /  21.6 °C 54.8 °F /  12.7 °C 30.25in /  1024.3hPa Calm   7.0mph /  11.3km/h 57% 0.00in /  0mm
11:05 71.2 °F /  21.8 °C 54.7 °F /  12.6 °C 30.25in /  1024.3hPa SSW 5.0mph /  8km/h 7.0mph /  11.3km/h 56% 0.00in /  0mm
11:10 71.7 °F /  22.1 °C 55.2 °F /  12.9 °C 30.25in /  1024.3hPa Calm   7.0mph /  11.3km/h 56% 0.00in /  0mm
11:15 72.0 °F /  22.2 °C 54.5 °F /  12.5 °C 30.25in /  1024.3hPa SSE 1.0mph /  1.6km/h 7.0mph /  11.3km/h 54% 0.00in /  0mm
11:20 72.1 °F /  22.3 °C 55.1 °F /  12.8 °C 30.25in /  1024.3hPa South 1.0mph /  1.6km/h 7.0mph /  11.3km/h 55% 0.00in /  0mm
11:25 72.4 °F /  22.4 °C 54.8 °F /  12.7 °C 30.25in /  1024.3hPa Calm   7.0mph /  11.3km/h 54% 0.00in /  0mm
11:30 72.1 °F /  22.3 °C 55.1 °F /  12.8 °C 30.24in /  1023.9hPa West 1.0mph /  1.6km/h 6.0mph /  9.7km/h 55% 0.00in /  0mm
11:34 72.0 °F /  22.2 °C 54.5 °F /  12.5 °C 30.24in /  1023.9hPa Calm   8.0mph /  12.9km/h 54% 0.00in /  0mm
11:40 72.2 °F /  22.3 °C 55.2 °F /  12.9 °C 30.24in /  1023.9hPa Calm   8.0mph /  12.9km/h 55% 0.00in /  0mm
11:45 73.0 °F /  22.8 °C 54.9 °F /  12.7 °C 30.24in /  1023.9hPa SSW 2.0mph /  3.2km/h 7.0mph /  11.3km/h 53% 0.00in /  0mm
11:55 73.9 °F /  23.3 °C 55.2 °F /  12.9 °C 30.23in /  1023.6hPa SSW 3.0mph /  4.8km/h 7.0mph /  11.3km/h 52% 0.00in /  0mm
12:00 73.8 °F /  23.2 °C 55.6 °F /  13.1 °C 30.23in /  1023.6hPa Calm   7.0mph /  11.3km/h 53% 0.00in /  0mm
12:05 73.8 °F /  23.2 °C 53.5 °F /  11.9 °C 30.23in /  1023.6hPa West 1.0mph /  1.6km/h 9.0mph /  14.5km/h 49% 0.00in /  0mm
12:10 74.2 °F /  23.4 °C 53.8 °F /  12.1 °C 30.23in /  1023.6hPa Calm   9.0mph /  14.5km/h 49% 0.00in /  0mm
12:15 74.6 °F /  23.7 °C 54.2 °F /  12.3 °C 30.22in /  1023.2hPa Calm   6.0mph /  9.7km/h 49% 0.00in /  0mm
12:20 75.0 °F /  23.9 °C 54.0 °F /  12.2 °C 30.22in /  1023.2hPa WSW 1.0mph /  1.6km/h 5.0mph /  8km/h 48% 0.00in /  0mm
12:24 75.4 °F /  24.1 °C 54.4 °F /  12.4 °C 30.22in /  1023.2hPa WNW 1.0mph /  1.6km/h 5.0mph /  8km/h 48% 0.00in /  0mm
12:30 75.6 °F /  24.2 °C 54.0 °F /  12.2 °C 30.22in /  1023.2hPa West 2.0mph /  3.2km/h 7.0mph /  11.3km/h 47% 0.00in /  0mm
12:35 75.8 °F /  24.3 °C 54.7 °F /  12.6 °C 30.22in /  1023.2hPa Calm   7.0mph /  11.3km/h 48% 0.00in /  0mm
12:45 75.5 °F /  24.2 °C 53.9 °F /  12.2 °C 30.21in /  1022.9hPa West 1.0mph /  1.6km/h 8.0mph /  12.9km/h 47% 0.00in /  0mm
12:50 75.6 °F /  24.2 °C 53.4 °F /  11.9 °C 30.21in /  1022.9hPa WSW 2.0mph /  3.2km/h 8.0mph /  12.9km/h 46% 0.00in /  0mm
12:55 75.6 °F /  24.2 °C 54.0 °F /  12.2 °C 30.21in /  1022.9hPa WNW 2.0mph /  3.2km/h 8.0mph /  12.9km/h 47% 0.00in /  0mm
12:59 75.9 °F /  24.4 °C 53.7 °F /  12.1 °C 30.21in /  1022.9hPa West 2.0mph /  3.2km/h 8.0mph /  12.9km/h 46% 0.00in /  0mm
13:04 76.0 °F /  24.4 °C 53.2 °F /  11.8 °C 30.21in /  1022.9hPa West 2.0mph /  3.2km/h 9.0mph /  14.5km/h 45% 0.00in /  0mm
13:10 76.2 °F /  24.6 °C 52.7 °F /  11.5 °C 30.21in /  1022.9hPa SW 4.0mph /  6.4km/h 9.0mph /  14.5km/h 44% 0.00in /  0mm
13:14 76.4 °F /  24.7 °C 52.9 °F /  11.6 °C 30.20in /  1022.6hPa WSW 5.0mph /  8km/h 8.0mph /  12.9km/h 44% 0.00in /  0mm
13:19 76.5 °F /  24.7 °C 53.0 °F /  11.7 °C 30.20in /  1022.6hPa SSW 4.0mph /  6.4km/h 11.0mph /  17.7km/h 44% 0.00in /  0mm
13:25 76.9 °F /  24.9 °C 51.4 °F /  10.8 °C 30.20in /  1022.6hPa West 5.0mph /  8km/h 11.0mph /  17.7km/h 41% 0.00in /  0mm
13:30 77.2 °F /  25.1 °C 51.7 °F /  10.9 °C 30.19in /  1022.2hPa West 5.0mph /  8km/h 9.0mph /  14.5km/h 41% 0.00in /  0mm
13:39 76.7 °F /  24.8 °C 51.3 °F /  10.7 °C 30.19in /  1022.2hPa Calm   10.0mph /  16.1km/h 41% 0.00in /  0mm
13:44 76.9 °F /  24.9 °C 51.4 °F /  10.8 °C 30.18in /  1021.9hPa WNW 4.0mph /  6.4km/h 8.0mph /  12.9km/h 41% 0.00in /  0mm
13:50 77.2 °F /  25.1 °C 53.0 °F /  11.7 °C 30.18in /  1021.9hPa WSW 3.0mph /  4.8km/h 9.0mph /  14.5km/h 43% 0.00in /  0mm
13:55 77.6 °F /  25.3 °C 52.1 °F /  11.2 °C 30.18in /  1021.9hPa WNW 6.0mph /  9.7km/h 9.0mph /  14.5km/h 41% 0.00in /  0mm
14:00 77.5 °F /  25.3 °C 52.6 °F /  11.4 °C 30.18in /  1021.9hPa West 2.0mph /  3.2km/h 9.0mph /  14.5km/h 42% 0.00in /  0mm
14:04 77.8 °F /  25.4 °C 52.2 °F /  11.2 °C 30.18in /  1021.9hPa SW 1.0mph /  1.6km/h 8.0mph /  12.9km/h 41% 0.00in /  0mm
14:10 77.8 °F /  25.4 °C 51.6 °F /  10.9 °C 30.17in /  1021.6hPa SW 2.0mph /  3.2km/h 8.0mph /  12.9km/h 40% 0.00in /  0mm
14:14 78.2 °F /  25.7 °C 52.6 °F /  11.4 °C 30.17in /  1021.6hPa West 2.0mph /  3.2km/h 11.0mph /  17.7km/h 41% 0.00in /  0mm
14:20 78.7 °F /  25.9 °C 52.4 °F /  11.3 °C 30.17in /  1021.6hPa WSW 5.0mph /  8km/h 11.0mph /  17.7km/h 40% 0.00in /  0mm
14:25 78.7 °F /  25.9 °C 51.7 °F /  10.9 °C 30.17in /  1021.6hPa West 5.0mph /  8km/h 11.0mph /  17.7km/h 39% 0.00in /  0mm
14:34 78.4 °F /  25.8 °C 51.4 °F /  10.8 °C 30.16in /  1021.2hPa Calm   9.0mph /  14.5km/h 39% 0.00in /  0mm
14:40 79.1 °F /  26.2 °C 51.3 °F /  10.7 °C 30.16in /  1021.2hPa West 3.0mph /  4.8km/h 6.0mph /  9.7km/h 38% 0.00in /  0mm
14:45 78.7 °F /  25.9 °C 51.7 °F /  10.9 °C 30.16in /  1021.2hPa South 4.0mph /  6.4km/h 9.0mph /  14.5km/h 39% 0.00in /  0mm
14:49 78.6 °F /  25.9 °C 51.6 °F /  10.9 °C 30.16in /  1021.2hPa Calm   9.0mph /  14.5km/h 39% 0.00in /  0mm
14:54 78.7 °F /  25.9 °C 51.7 °F /  10.9 °C 30.15in /  1020.9hPa WSW 1.0mph /  1.6km/h 6.0mph /  9.7km/h 39% 0.00in /  0mm
15:00 79.0 °F /  26.1 °C 51.3 °F /  10.7 °C 30.15in /  1020.9hPa WNW 6.0mph /  9.7km/h 13.0mph /  20.9km/h 38% 0.00in /  0mm
15:04 79.3 °F /  26.3 °C 50.8 °F /  10.4 °C 30.15in /  1020.9hPa SW 6.0mph /  9.7km/h 13.0mph /  20.9km/h 37% 0.00in /  0mm
15:10 78.9 °F /  26.1 °C 50.4 °F /  10.2 °C 30.15in /  1020.9hPa SW 4.0mph /  6.4km/h 10.0mph /  16.1km/h 37% 0.00in /  0mm
15:15 78.8 °F /  26 °C 50.4 °F /  10.2 °C 30.15in /  1020.9hPa South 4.0mph /  6.4km/h 10.0mph /  16.1km/h 37% 0.00in /  0mm
15:20 79.1 °F /  26.2 °C 51.3 °F /  10.7 °C 30.15in /  1020.9hPa SW 2.0mph /  3.2km/h 9.0mph /  14.5km/h 38% 0.00in /  0mm
15:25 79.4 °F /  26.3 °C 51.6 °F /  10.9 °C 30.15in /  1020.9hPa West 4.0mph /  6.4km/h 10.0mph /  16.1km/h 38% 0.00in /  0mm
15:30 79.8 °F /  26.6 °C 51.2 °F /  10.7 °C 30.15in /  1020.9hPa SW 1.0mph /  1.6km/h 10.0mph /  16.1km/h 37% 0.00in /  0mm
15:40 80.3 °F /  26.8 °C 50.2 °F /  10.1 °C 30.14in /  1020.5hPa WSW 2.0mph /  3.2km/h 9.0mph /  14.5km/h 35% 0.00in /  0mm
15:45 80.0 °F /  26.7 °C 51.4 °F /  10.8 °C 30.14in /  1020.5hPa SW 2.0mph /  3.2km/h 10.0mph /  16.1km/h 37% 0.00in /  0mm
15:55 79.0 °F /  26.1 °C 50.5 °F /  10.3 °C 30.14in /  1020.5hPa SSW 2.0mph /  3.2km/h 13.0mph /  20.9km/h 37% 0.00in /  0mm
15:59 79.4 °F /  26.3 °C 51.6 °F /  10.9 °C 30.14in /  1020.5hPa SSW 2.0mph /  3.2km/h 13.0mph /  20.9km/h 38% 0.00in /  0mm
16:05 79.7 °F /  26.5 °C 51.9 °F /  11.1 °C 30.14in /  1020.5hPa Calm   8.0mph /  12.9km/h 38% 0.00in /  0mm
16:09 79.9 °F /  26.6 °C 52.1 °F /  11.2 °C 30.14in /  1020.5hPa WNW 3.0mph /  4.8km/h 7.0mph /  11.3km/h 38% 0.00in /  0mm
16:14 79.7 °F /  26.5 °C 51.2 °F /  10.7 °C 30.14in /  1020.5hPa SSW 3.0mph /  4.8km/h 7.0mph /  11.3km/h 37% 0.00in /  0mm
16:20 79.4 °F /  26.3 °C 51.6 °F /  10.9 °C 30.14in /  1020.5hPa SSW 2.0mph /  3.2km/h 7.0mph /  11.3km/h 38% 0.00in /  0mm
16:25 79.8 °F /  26.6 °C 52.0 °F /  11.1 °C 30.14in /  1020.5hPa South 3.0mph /  4.8km/h 7.0mph /  11.3km/h 38% 0.00in /  0mm
16:29 80.0 °F /  26.7 °C 52.9 °F /  11.6 °C 30.14in /  1020.5hPa SSW 1.0mph /  1.6km/h 7.0mph /  11.3km/h 39% 0.00in /  0mm
16:35 79.6 °F /  26.4 °C 51.1 °F /  10.6 °C 30.13in /  1020.2hPa SSW 2.0mph /  3.2km/h 9.0mph /  14.5km/h 37% 0.00in /  0mm
16:40 79.8 °F /  26.6 °C 52.0 °F /  11.1 °C 30.13in /  1020.2hPa SSW 1.0mph /  1.6km/h 9.0mph /  14.5km/h 38% 0.00in /  0mm
16:49 79.2 °F /  26.2 °C 51.4 °F /  10.8 °C 30.13in /  1020.2hPa South 2.0mph /  3.2km/h 8.0mph /  12.9km/h 38% 0.00in /  0mm
16:54 79.4 °F /  26.3 °C 51.6 °F /  10.9 °C 30.13in /  1020.2hPa SW 3.0mph /  4.8km/h 7.0mph /  11.3km/h 38% 0.00in /  0mm
17:00 79.4 °F /  26.3 °C 52.3 °F /  11.3 °C 30.13in /  1020.2hPa SW 3.0mph /  4.8km/h 10.0mph /  16.1km/h 39% 0.00in /  0mm
17:04 79.2 °F /  26.2 °C 52.1 °F /  11.2 °C 30.12in /  1019.9hPa SW 3.0mph /  4.8km/h 10.0mph /  16.1km/h 39% 0.00in /  0mm
17:10 79.3 °F /  26.3 °C 51.5 °F /  10.8 °C 30.12in /  1019.9hPa SW 3.0mph /  4.8km/h 9.0mph /  14.5km/h 38% 0.00in /  0mm
17:14 79.2 °F /  26.2 °C 52.1 °F /  11.2 °C 30.12in /  1019.9hPa SSW 5.0mph /  8km/h 10.0mph /  16.1km/h 39% 0.00in /  0mm
17:19 78.7 °F /  25.9 °C 51.7 °F /  10.9 °C 30.12in /  1019.9hPa SW 1.0mph /  1.6km/h 10.0mph /  16.1km/h 39% 0.00in /  0mm
17:25 78.7 °F /  25.9 °C 51.7 °F /  10.9 °C 30.13in /  1020.2hPa SSW 1.0mph /  1.6km/h 9.0mph /  14.5km/h 39% 0.00in /  0mm
17:30 78.7 °F /  25.9 °C 51.7 °F /  10.9 °C 30.13in /  1020.2hPa SW 3.0mph /  4.8km/h 8.0mph /  12.9km/h 39% 0.00in /  0mm
17:39 78.5 °F /  25.8 °C 51.5 °F /  10.8 °C 30.13in /  1020.2hPa SSW 3.0mph /  4.8km/h 8.0mph /  12.9km/h 39% 0.00in /  0mm
17:45 78.1 °F /  25.6 °C 51.2 °F /  10.7 °C 30.12in /  1019.9hPa SSW 2.0mph /  3.2km/h 8.0mph /  12.9km/h 39% 0.00in /  0mm
17:50 78.1 °F /  25.6 °C 51.8 °F /  11 °C 30.13in /  1020.2hPa Calm   8.0mph /  12.9km/h 40% 0.00in /  0mm
17:54 78.0 °F /  25.6 °C 51.8 °F /  11 °C 30.13in /  1020.2hPa SW 3.0mph /  4.8km/h 6.0mph /  9.7km/h 40% 0.00in /  0mm
17:59 77.8 °F /  25.4 °C 51.6 °F /  10.9 °C 30.13in /  1020.2hPa SW 5.0mph /  8km/h 7.0mph /  11.3km/h 40% 0.00in /  0mm
18:04 77.6 °F /  25.3 °C 52.1 °F /  11.2 °C 30.13in /  1020.2hPa SSW 1.0mph /  1.6km/h 7.0mph /  11.3km/h 41% 0.00in /  0mm
18:10 77.6 °F /  25.3 °C 52.1 °F /  11.2 °C 30.13in /  1020.2hPa SSW 1.0mph /  1.6km/h 6.0mph /  9.7km/h 41% 0.00in /  0mm
18:14 77.4 °F /  25.2 °C 51.9 °F /  11.1 °C 30.13in /  1020.2hPa Calm   5.0mph /  8km/h 41% 0.00in /  0mm
18:19 77.1 °F /  25.1 °C 51.6 °F /  10.9 °C 30.13in /  1020.2hPa Calm   1.0mph /  1.6km/h 41% 0.00in /  0mm
18:25 76.9 °F /  24.9 °C 52.1 °F /  11.2 °C 30.13in /  1020.2hPa South 1.0mph /  1.6km/h 4.0mph /  6.4km/h 42% 0.00in /  0mm
18:29 76.6 °F /  24.8 °C 51.8 °F /  11 °C 30.13in /  1020.2hPa Calm   4.0mph /  6.4km/h 42% 0.00in /  0mm
18:34 76.2 °F /  24.6 °C 51.5 °F /  10.8 °C 30.13in /  1020.2hPa Calm   1.0mph /  1.6km/h 42% 0.00in /  0mm
18:40 75.9 °F /  24.4 °C 51.2 °F /  10.7 °C 30.13in /  1020.2hPa Calm   1.0mph /  1.6km/h 42% 0.00in /  0mm
18:50 74.8 °F /  23.8 °C 50.8 °F /  10.4 °C 30.13in /  1020.2hPa Calm   3.0mph /  4.8km/h 43% 0.00in /  0mm
18:59 71.5 °F /  21.9 °C 51.9 °F /  11.1 °C 30.13in /  1020.2hPa Calm   1.0mph /  1.6km/h 50% 0.00in /  0mm
19:05 70.4 °F /  21.3 °C 52.0 °F /  11.1 °C 30.13in /  1020.2hPa Calm     52% 0.00in /  0mm
19:09 69.7 °F /  20.9 °C 51.3 °F /  10.7 °C 30.13in /  1020.2hPa Calm     52% 0.00in /  0mm
19:14 69.2 °F /  20.7 °C 51.4 °F /  10.8 °C 30.13in /  1020.2hPa Calm     53% 0.00in /  0mm
19:19 68.6 °F /  20.3 °C 50.8 °F /  10.4 °C 30.13in /  1020.2hPa Calm     53% 0.00in /  0mm
19:25 68.1 °F /  20.1 °C 50.8 °F /  10.4 °C 30.13in /  1020.2hPa Calm     54% 0.00in /  0mm
19:29 67.7 °F /  19.8 °C 50.5 °F /  10.3 °C 30.13in /  1020.2hPa Calm     54% 0.00in /  0mm
19:34 67.4 °F /  19.7 °C 49.7 °F /  9.8 °C 30.13in /  1020.2hPa Calm   1.0mph /  1.6km/h 53% 0.00in /  0mm
19:39 67.1 °F /  19.5 °C 49.4 °F /  9.7 °C 30.13in /  1020.2hPa Calm   2.0mph /  3.2km/h 53% 0.00in /  0mm
19:44 67.0 °F /  19.4 °C 48.8 °F /  9.3 °C 30.13in /  1020.2hPa Calm   2.0mph /  3.2km/h 52% 0.00in /  0mm
19:50 67.4 °F /  19.7 °C 48.1 °F /  8.9 °C 30.13in /  1020.2hPa Calm   3.0mph /  4.8km/h 50% 0.00in /  0mm
19:54 67.6 °F /  19.8 °C 47.8 °F /  8.8 °C 30.13in /  1020.2hPa Calm   3.0mph /  4.8km/h 49% 0.00in /  0mm
19:59 67.7 °F /  19.8 °C 47.9 °F /  8.8 °C 30.13in /  1020.2hPa SW 1.0mph /  1.6km/h 3.0mph /  4.8km/h 49% 0.00in /  0mm
20:04 67.7 °F /  19.8 °C 47.3 °F /  8.5 °C 30.13in /  1020.2hPa Calm   4.0mph /  6.4km/h 48% 0.00in /  0mm
20:09 67.7 °F /  19.8 °C 47.3 °F /  8.5 °C 30.14in /  1020.5hPa SSW 1.0mph /  1.6km/h 4.0mph /  6.4km/h 48% 0.00in /  0mm
20:14 67.7 °F /  19.8 °C 47.3 °F /  8.5 °C 30.14in /  1020.5hPa Calm   3.0mph /  4.8km/h 48% 0.00in /  0mm
20:19 67.7 °F /  19.8 °C 47.3 °F /  8.5 °C 30.14in /  1020.5hPa SSW 1.0mph /  1.6km/h 6.0mph /  9.7km/h 48% 0.00in /  0mm
20:25 67.5 °F /  19.7 °C 47.1 °F /  8.4 °C 30.13in /  1020.2hPa Calm   6.0mph /  9.7km/h 48% 0.00in /  0mm
20:30 67.3 °F /  19.6 °C 47.0 °F /  8.3 °C 30.13in /  1020.2hPa Calm   3.0mph /  4.8km/h 48% 0.00in /  0mm
20:40 66.4 °F /  19.1 °C 47.2 °F /  8.4 °C 30.14in /  1020.5hPa Calm   2.0mph /  3.2km/h 50% 0.00in /  0mm
20:45 65.9 °F /  18.8 °C 46.8 °F /  8.2 °C 30.14in /  1020.5hPa Calm   3.0mph /  4.8km/h 50% 0.00in /  0mm
20:54 64.9 °F /  18.3 °C 46.4 °F /  8 °C 30.14in /  1020.5hPa Calm   4.0mph /  6.4km/h 51% 0.00in /  0mm
21:00 64.5 °F /  18.1 °C 46.5 °F /  8.1 °C 30.14in /  1020.5hPa SSW 2.0mph /  3.2km/h 5.0mph /  8km/h 52% 0.00in /  0mm
21:04 64.3 °F /  17.9 °C 46.8 °F /  8.2 °C 30.13in /  1020.2hPa SSW 2.0mph /  3.2km/h 5.0mph /  8km/h 53% 0.00in /  0mm
21:09 64.5 °F /  18.1 °C 47.0 °F /  8.3 °C 30.13in /  1020.2hPa SSW 1.0mph /  1.6km/h 5.0mph /  8km/h 53% 0.00in /  0mm
21:15 64.7 °F /  18.2 °C 46.7 °F /  8.2 °C 30.13in /  1020.2hPa SSW 2.0mph /  3.2km/h 6.0mph /  9.7km/h 52% 0.00in /  0mm
21:19 64.9 °F /  18.3 °C 46.4 °F /  8 °C 30.13in /  1020.2hPa SSW 2.0mph /  3.2km/h 7.0mph /  11.3km/h 51% 0.00in /  0mm
21:25 65.1 °F /  18.4 °C 46.0 °F /  7.8 °C 30.13in /  1020.2hPa SSW 3.0mph /  4.8km/h 7.0mph /  11.3km/h 50% 0.00in /  0mm
21:30 65.0 °F /  18.3 °C 45.9 °F /  7.7 °C 30.13in /  1020.2hPa SSW 2.0mph /  3.2km/h 6.0mph /  9.7km/h 50% 0.00in /  0mm
21:35 64.9 °F /  18.3 °C 45.8 °F /  7.7 °C 30.14in /  1020.5hPa SSW 3.0mph /  4.8km/h 5.0mph /  8km/h 50% 0.00in /  0mm
21:40 64.8 °F /  18.2 °C 45.2 °F /  7.3 °C 30.14in /  1020.5hPa Calm   5.0mph /  8km/h 49% 0.00in /  0mm
21:50 64.7 °F /  18.2 °C 45.1 °F /  7.3 °C 30.14in /  1020.5hPa SSW 2.0mph /  3.2km/h 6.0mph /  9.7km/h 49% 0.00in /  0mm
21:55 64.6 °F /  18.1 °C 44.5 °F /  6.9 °C 30.14in /  1020.5hPa SSW 3.0mph /  4.8km/h 6.0mph /  9.7km/h 48% 0.00in /  0mm
21:59 64.6 °F /  18.1 °C 44.5 °F /  6.9 °C 30.14in /  1020.5hPa SSW 4.0mph /  6.4km/h 5.0mph /  8km/h 48% 0.00in /  0mm
22:04 64.9 °F /  18.3 °C 44.8 °F /  7.1 °C 30.14in /  1020.5hPa SSW 4.0mph /  6.4km/h 7.0mph /  11.3km/h 48% 0.00in /  0mm
22:09 65.1 °F /  18.4 °C 44.4 °F /  6.9 °C 30.14in /  1020.5hPa South 4.0mph /  6.4km/h 7.0mph /  11.3km/h 47% 0.00in /  0mm
22:15 65.2 °F /  18.4 °C 44.5 °F /  6.9 °C 30.14in /  1020.5hPa SSW 2.0mph /  3.2km/h 7.0mph /  11.3km/h 47% 0.00in /  0mm
22:19 65.2 °F /  18.4 °C 44.5 °F /  6.9 °C 30.14in /  1020.5hPa SSW 4.0mph /  6.4km/h 7.0mph /  11.3km/h 47% 0.00in /  0mm
22:24 65.3 °F /  18.5 °C 45.1 °F /  7.3 °C 30.14in /  1020.5hPa SSW 3.0mph /  4.8km/h 7.0mph /  11.3km/h 48% 0.00in /  0mm
22:29 65.2 °F /  18.4 °C 45.0 °F /  7.2 °C 30.14in /  1020.5hPa SSW 3.0mph /  4.8km/h 7.0mph /  11.3km/h 48% 0.00in /  0mm
22:35 65.1 °F /  18.4 °C 44.9 °F /  7.2 °C 30.14in /  1020.5hPa SSW 3.0mph /  4.8km/h 7.0mph /  11.3km/h 48% 0.00in /  0mm
22:40 64.8 °F /  18.2 °C 45.2 °F /  7.3 °C 30.14in /  1020.5hPa SSW 3.0mph /  4.8km/h 7.0mph /  11.3km/h 49% 0.00in /  0mm
22:49 64.7 °F /  18.2 °C 45.1 °F /  7.3 °C 30.13in /  1020.2hPa SSW 3.0mph /  4.8km/h 7.0mph /  11.3km/h 49% 0.00in /  0mm
22:54 64.7 °F /  18.2 °C 45.6 °F /  7.6 °C 30.13in /  1020.2hPa SSW 3.0mph /  4.8km/h 7.0mph /  11.3km/h 50% 0.00in /  0mm
22:59 64.3 °F /  17.9 °C 45.3 °F /  7.4 °C 30.13in /  1020.2hPa SSW 1.0mph /  1.6km/h 6.0mph /  9.7km/h 50% 0.00in /  0mm
23:04 63.9 °F /  17.7 °C 45.4 °F /  7.4 °C 30.13in /  1020.2hPa SSW 4.0mph /  6.4km/h 6.0mph /  9.7km/h 51% 0.00in /  0mm
23:09 63.9 °F /  17.7 °C 45.4 °F /  7.4 °C 30.13in /  1020.2hPa SSW 4.0mph /  6.4km/h 8.0mph /  12.9km/h 51% 0.00in /  0mm
23:14 63.7 °F /  17.6 °C 45.2 °F /  7.3 °C 30.13in /  1020.2hPa SSW 4.0mph /  6.4km/h 8.0mph /  12.9km/h 51% 0.00in /  0mm
23:19 63.8 °F /  17.7 °C 45.3 °F /  7.4 °C 30.13in /  1020.2hPa SSW 4.0mph /  6.4km/h 9.0mph /  14.5km/h 51% 0.00in /  0mm
23:24 64.1 °F /  17.8 °C 45.6 °F /  7.6 °C 30.13in /  1020.2hPa SSW 4.0mph /  6.4km/h 9.0mph /  14.5km/h 51% 0.00in /  0mm
23:29 64.0 °F /  17.8 °C 46.0 °F /  7.8 °C 30.13in /  1020.2hPa SSW 5.0mph /  8km/h 8.0mph /  12.9km/h 52% 0.00in /  0mm
23:34 64.1 °F /  17.8 °C 46.1 °F /  7.8 °C 30.13in /  1020.2hPa SSW 4.0mph /  6.4km/h 7.0mph /  11.3km/h 52% 0.00in /  0mm
23:40 64.0 °F /  17.8 °C 46.0 °F /  7.8 °C 30.13in /  1020.2hPa SSW 4.0mph /  6.4km/h 8.0mph /  12.9km/h 52% 0.00in /  0mm
23:45 63.9 °F /  17.7 °C 45.9 °F /  7.7 °C 30.13in /  1020.2hPa SSW 5.0mph /  8km/h 9.0mph /  14.5km/h 52% 0.00in /  0mm
23:50 63.5 °F /  17.5 °C 46.1 °F /  7.8 °C 30.13in /  1020.2hPa SSW 4.0mph /  6.4km/h 9.0mph /  14.5km/h 53% 0.00in /  0mm
23:54 63.4 °F /  17.4 °C 46.0 °F /  7.8 °C 30.13in /  1020.2hPa SSW 3.0mph /  4.8km/h 7.0mph /  11.3km/h 53% 0.00in /  0mm
23:59 63.1 °F /  17.3 °C 46.2 °F /  7.9 °C 30.13in /  1020.2hPa SSW 3.0mph /  4.8km/h 7.0mph /  11.3km/h 54% 0.00in /  0mm
Westford Weather
Compliments of Weather Underground

 
 
Current Radar Loop:

Copyright © WestfordWeather.net 2007-2014. All rights reserved.